Time;durP1;ratioP1;P1;durP2;ratioP2;P2;SDS_P1;SDS_P2;PMS_P1;PMS_P2;Temp;Humidity;BMP_temperature;BMP_pressure;BME280_temperature;BME280_humidity;BME280_pressure;Samples;Min_cycle;Max_cycle;Signal;HPM_P1;HPM_P2
2022/01/18 00:01:41;;;;;;;23.17;4.55;;;6.40;99.90;;;;;;7218705;32;20106;-78
2022/01/18 00:05:45;;;;;;;28.10;4.93;;;6.30;99.90;;;;;;7229959;32;20097;-78
2022/01/18 00:09:48;;;;;;;30.10;4.85;;;6.50;99.90;;;;;;7216191;32;20533;-78
2022/01/18 00:13:58;;;;;;;26.62;4.70;;;6.60;99.90;;;;;;7229459;32;20112;-78
2022/01/18 00:18:07;;;;;;;25.10;5.20;;;6.50;99.90;;;;;;7215777;32;20117;-78
2022/01/18 00:22:13;;;;;;;18.05;4.43;;;6.60;99.90;;;;;;7211955;32;20132;-78
2022/01/18 00:26:17;;;;;;;27.25;5.00;;;6.60;99.90;;;;;;7212417;32;20321;-77
2022/01/18 00:34:33;;;;;;;22.02;4.72;;;6.70;99.90;;;;;;7218806;32;20113;-78
2022/01/18 00:38:46;;;;;;;22.77;5.15;;;6.60;99.90;;;;;;7213750;32;20216;-78
2022/01/18 00:42:48;;;;;;;26.52;4.62;;;6.60;99.90;;;;;;7235124;32;20304;-78
2022/01/18 00:46:51;;;;;;;25.80;5.57;;;6.60;99.90;;;;;;7215540;32;20270;-78
2022/01/18 00:50:53;;;;;;;28.20;5.87;;;6.50;99.90;;;;;;7214589;32;20129;-78
2022/01/18 00:54:55;;;;;;;23.15;5.45;;;6.40;99.90;;;;;;7230004;32;20774;-78
2022/01/18 00:58:58;;;;;;;27.35;4.80;;;6.40;99.90;;;;;;7225785;32;20108;-78
2022/01/18 01:03:00;;;;;;;25.62;4.82;;;6.50;99.90;;;;;;7222112;32;20184;-78
2022/01/18 01:07:03;;;;;;;24.70;5.47;;;6.40;99.90;;;;;;7220136;32;20125;-78
2022/01/18 01:11:06;;;;;;;22.60;5.22;;;6.40;99.90;;;;;;7213914;32;20105;-77
2022/01/18 01:15:12;;;;;;;22.37;4.20;;;6.40;99.90;;;;;;7224630;32;20203;-78
2022/01/18 01:32:11;;;;;;;20.60;3.87;;;6.30;99.90;;;;;;7227703;32;20649;-78
2022/01/18 01:36:45;;;;;;;29.83;5.22;;;6.30;99.90;;;;;;7209613;32;20109;-77
2022/01/18 01:45:11;;;;;;;24.42;4.20;;;6.40;99.90;;;;;;7223818;32;20377;-78
2022/01/18 01:49:14;;;;;;;23.20;4.82;;;6.40;99.90;;;;;;7237693;32;20497;-77
2022/01/18 01:53:18;;;;;;;21.77;4.80;;;6.30;99.90;;;;;;7219929;32;20105;-77
2022/01/18 01:57:21;;;;;;;18.83;4.90;;;6.30;99.90;;;;;;7214543;32;20136;-77
2022/01/18 02:01:23;;;;;;;18.67;3.80;;;6.30;99.90;;;;;;7221830;32;20109;-77
2022/01/18 02:05:26;;;;;;;20.85;4.28;;;6.30;99.90;;;;;;7214667;32;20339;-77
2022/01/18 02:09:28;;;;;;;23.77;4.72;;;6.30;99.90;;;;;;7232695;32;20530;-77
2022/01/18 02:13:32;;;;;;;20.67;4.43;;;6.30;99.90;;;;;;7228875;32;20171;-78
2022/01/18 02:22:16;;;;;;;21.85;4.18;;;6.20;99.90;;;;;;7219966;32;20506;-77
2022/01/18 02:26:18;;;;;;;18.67;3.67;;;6.20;99.90;;;;;;7209299;32;20911;-77
2022/01/18 02:30:19;;;;;;;26.65;5.47;;;6.20;99.90;;;;;;7224905;32;20178;-77
2022/01/18 02:34:22;;;;;;;22.45;4.90;;;6.30;99.90;;;;;;7219438;32;20181;-77
2022/01/18 02:38:24;;;;;;;29.42;5.37;;;6.20;99.90;;;;;;7217367;32;20105;-77
2022/01/18 02:42:30;;;;;;;26.80;4.97;;;6.30;99.90;;;;;;7228770;32;20329;-77
2022/01/18 02:46:33;;;;;;;23.67;4.22;;;6.30;99.90;;;;;;7226358;32;20191;-77
2022/01/18 02:50:35;;;;;;;31.27;5.43;;;6.20;99.90;;;;;;7240131;32;20267;-77
2022/01/18 02:54:36;;;;;;;24.02;4.20;;;6.20;99.90;;;;;;7221817;32;20139;-77
2022/01/18 02:58:38;;;;;;;18.77;3.70;;;6.20;99.90;;;;;;7208845;32;20291;-77
2022/01/18 03:12:07;;;;;;;20.40;2.90;;;6.20;99.90;;;;;;7204575;32;20108;-77
2022/01/18 03:16:08;;;;;;;21.33;3.33;;;6.20;99.90;;;;;;7217545;32;20262;-77
2022/01/18 03:20:13;;;;;;;16.27;2.85;;;6.30;99.90;;;;;;7207869;32;20113;-77
2022/01/18 03:24:31;;;;;;;22.67;3.17;;;6.30;99.90;;;;;;7209306;32;20141;-78
2022/01/18 03:28:33;;;;;;;25.08;3.03;;;6.30;99.90;;;;;;7222099;32;20801;-77
2022/01/18 03:32:36;;;;;;;18.70;3.22;;;6.30;99.90;;;;;;7228026;32;20108;-77
2022/01/18 03:36:38;;;;;;;23.48;3.47;;;6.40;99.90;;;;;;7222873;32;20805;-77
2022/01/18 03:40:40;;;;;;;25.62;3.42;;;6.30;99.90;;;;;;7212338;32;20178;-77
2022/01/18 03:44:44;;;;;;;21.62;4.22;;;6.20;99.90;;;;;;7221260;32;20124;-79
2022/01/18 03:48:51;;;;;;;21.55;3.12;;;6.10;99.90;;;;;;7213295;32;20124;-77
2022/01/18 03:52:54;;;;;;;22.95;3.67;;;6.20;99.90;;;;;;7222142;32;20169;-77
2022/01/18 03:56:55;;;;;;;17.30;3.53;;;6.20;99.90;;;;;;7224923;32;20191;-78
2022/01/18 04:00:57;;;;;;;23.25;3.25;;;6.20;99.90;;;;;;7227890;32;20131;-77
2022/01/18 04:05:01;;;;;;;19.08;2.42;;;6.10;99.90;;;;;;7215051;32;20562;-77
2022/01/18 04:09:03;;;;;;;23.52;3.25;;;6.10;99.90;;;;;;7220629;32;20754;-77
2022/01/18 04:13:05;;;;;;;17.00;2.10;;;6.20;99.90;;;;;;7216806;32;20113;-77
2022/01/18 04:29:56;;;;;;;17.55;2.90;;;5.90;99.90;;;;;;7233931;32;20241;-77
2022/01/18 04:33:57;;;;;;;13.85;2.33;;;5.80;99.90;;;;;;7227903;32;20165;-77
2022/01/18 04:37:59;;;;;;;17.67;2.30;;;5.80;99.90;;;;;;7223849;32;20113;-77
2022/01/18 04:42:01;;;;;;;16.70;1.98;;;5.80;99.90;;;;;;7218188;32;20580;-77
2022/01/18 04:50:23;;;;;;;19.50;2.15;;;5.70;99.90;;;;;;7217360;32;20228;-78
2022/01/18 04:54:29;;;;;;;11.07;2.47;;;5.70;99.90;;;;;;7224956;32;20184;-78
2022/01/18 04:58:31;;;;;;;11.55;2.25;;;5.60;99.90;;;;;;7232170;32;20100;-78
2022/01/18 05:02:33;;;;;;;9.50;2.55;;;5.60;99.90;;;;;;7218944;32;20132;-77
2022/01/18 05:06:35;;;;;;;8.73;2.08;;;5.50;99.90;;;;;;7216987;32;20140;-77
2022/01/18 05:10:37;;;;;;;15.00;3.40;;;5.60;99.90;;;;;;7228316;32;20556;-77
2022/01/18 05:14:40;;;;;;;14.63;2.47;;;5.50;99.90;;;;;;7228307;32;20112;-77
2022/01/18 05:23:02;;;;;;;20.95;3.53;;;5.50;99.90;;;;;;7215836;32;20291;-78
2022/01/18 05:27:05;;;;;;;14.98;3.33;;;5.60;99.90;;;;;;7211950;32;20490;-77
2022/01/18 05:31:07;;;;;;;15.32;3.37;;;5.60;99.90;;;;;;7219698;32;20203;-77
2022/01/18 05:35:09;;;;;;;19.62;3.22;;;5.70;99.90;;;;;;7212988;32;20808;-77
2022/01/18 05:39:11;;;;;;;13.93;3.10;;;5.70;99.90;;;;;;7230837;32;20101;-77
2022/01/18 05:43:14;;;;;;;16.30;3.50;;;5.70;99.90;;;;;;7221535;32;20223;-77
2022/01/18 05:47:15;;;;;;;12.37;2.83;;;5.70;99.90;;;;;;7222659;32;20100;-79
2022/01/18 05:51:17;;;;;;;17.10;3.95;;;5.70;99.90;;;;;;7218731;32;20199;-79
2022/01/18 05:55:19;;;;;;;17.73;3.95;;;5.70;99.90;;;;;;7224288;32;20171;-79
2022/01/18 05:59:33;;;;;;;15.45;3.53;;;5.60;99.90;;;;;;7223724;32;20836;-78
2022/01/18 06:03:51;;;;;;;20.75;4.10;;;5.60;99.90;;;;;;7211860;32;20101;-78
2022/01/18 06:07:54;;;;;;;11.32;3.37;;;5.70;99.90;;;;;;7211800;32;20105;-78
2022/01/18 06:11:55;;;;;;;26.67;8.27;;;5.70;99.90;;;;;;7217410;32;20177;-78
2022/01/18 06:15:57;;;;;;;15.82;4.57;;;5.60;99.90;;;;;;7217239;32;20310;-77
2022/01/18 06:19:59;;;;;;;15.13;3.40;;;5.60;99.90;;;;;;7215908;32;20290;-77
2022/01/18 06:24:03;;;;;;;14.52;3.72;;;5.60;99.90;;;;;;7218308;32;20522;-78
2022/01/18 06:28:05;;;;;;;15.35;3.67;;;5.60;99.90;;;;;;7229903;32;20113;-78
2022/01/18 06:32:07;;;;;;;27.48;5.22;;;5.70;99.90;;;;;;7221711;32;20120;-78
2022/01/18 06:36:09;;;;;;;27.62;5.35;;;5.70;99.90;;;;;;7222417;32;20162;-77
2022/01/18 06:40:11;;;;;;;16.87;4.30;;;5.70;99.90;;;;;;7221027;32;20191;-78
2022/01/18 06:44:14;;;;;;;22.55;4.05;;;5.70;99.90;;;;;;7230352;32;20179;-78
2022/01/18 06:48:16;;;;;;;32.08;9.15;;;5.70;99.90;;;;;;7236254;32;20113;-77
2022/01/18 06:52:18;;;;;;;22.60;5.85;;;5.60;99.90;;;;;;7222297;32;20469;-78
2022/01/18 06:56:20;;;;;;;26.00;5.20;;;5.60;99.90;;;;;;7221665;32;20147;-79
2022/01/18 07:00:23;;;;;;;23.40;5.07;;;5.70;99.90;;;;;;7223898;32;20128;-79
2022/01/18 07:04:24;;;;;;;17.45;4.43;;;5.70;99.90;;;;;;7227788;32;20116;-79
2022/01/18 07:08:26;;;;;;;17.35;4.10;;;5.70;99.90;;;;;;7243548;32;20125;-80
2022/01/18 07:12:33;;;;;;;20.05;4.12;;;5.70;99.90;;;;;;7249354;32;20120;-79
2022/01/18 07:16:34;;;;;;;19.58;4.62;;;5.70;99.90;;;;;;7224670;32;20109;-77
2022/01/18 07:20:38;;;;;;;26.83;7.25;;;5.70;99.90;;;;;;7214024;32;20136;-78
2022/01/18 07:24:43;;;;;;;19.25;4.87;;;5.70;99.90;;;;;;7202390;32;20192;-77
2022/01/18 07:28:45;;;;;;;23.50;5.60;;;5.70;99.90;;;;;;7230491;32;20175;-78
2022/01/18 07:32:47;;;;;;;24.37;6.60;;;5.60;99.90;;;;;;7236916;32;20562;-77
2022/01/18 07:36:48;;;;;;;19.33;5.22;;;5.60;99.90;;;;;;7220846;32;20345;-76
2022/01/18 07:40:53;;;;;;;29.27;8.35;;;5.60;99.90;;;;;;7228798;32;20246;-77
2022/01/18 07:44:55;;;;;;;34.33;8.32;;;5.70;99.90;;;;;;7217741;32;20164;-76
2022/01/18 07:48:57;;;;;;;22.50;8.15;;;5.80;99.90;;;;;;7221730;32;20282;-76
2022/01/18 07:52:59;;;;;;;28.62;7.82;;;5.90;99.90;;;;;;7222709;32;20223;-76
2022/01/18 07:57:01;;;;;;;36.95;9.18;;;5.90;99.90;;;;;;7221230;32;20137;-76
2022/01/18 08:01:03;;;;;;;25.98;7.45;;;5.80;99.90;;;;;;7207710;32;21180;-76
2022/01/18 08:05:07;;;;;;;25.48;7.87;;;5.90;99.90;;;;;;7221199;32;20192;-76
2022/01/18 08:09:09;;;;;;;24.23;7.70;;;5.90;99.90;;;;;;7232334;32;20135;-76
2022/01/18 08:13:10;;;;;;;28.35;9.18;;;5.90;99.90;;;;;;7234146;32;20130;-76
2022/01/18 08:17:13;;;;;;;34.15;8.77;;;6.00;99.90;;;;;;7232473;32;20128;-76
2022/01/18 08:21:14;;;;;;;23.20;8.38;;;6.10;99.90;;;;;;7222959;32;20135;-76
2022/01/18 08:25:17;;;;;;;25.45;8.05;;;6.10;99.90;;;;;;7215009;32;20108;-76
2022/01/18 08:29:19;;;;;;;27.35;8.23;;;6.20;99.90;;;;;;7222551;32;20133;-77
2022/01/18 08:33:41;;;;;;;26.52;8.40;;;6.30;99.90;;;;;;7232966;32;20227;-77
2022/01/18 08:37:43;;;;;;;26.45;8.43;;;6.30;99.90;;;;;;7220623;32;20132;-77
2022/01/18 08:41:45;;;;;;;31.50;8.82;;;6.40;99.90;;;;;;7231616;32;20278;-77
2022/01/18 08:45:47;;;;;;;28.75;9.50;;;6.30;99.90;;;;;;7232131;32;20636;-77
2022/01/18 08:49:49;;;;;;;28.85;8.50;;;6.30;99.90;;;;;;7234731;32;20514;-77
2022/01/18 08:53:51;;;;;;;33.40;9.50;;;6.30;99.90;;;;;;7226400;32;20112;-77
2022/01/18 08:57:53;;;;;;;25.58;7.65;;;6.40;99.90;;;;;;7225848;32;20117;-77
2022/01/18 09:01:57;;;;;;;28.85;8.15;;;6.50;99.90;;;;;;7230995;32;20886;-77
2022/01/18 09:06:04;;;;;;;31.30;8.25;;;6.60;99.90;;;;;;7210231;32;20113;-77
2022/01/18 09:10:09;;;;;;;27.75;7.80;;;6.70;99.90;;;;;;7218852;32;20116;-77
2022/01/18 09:14:12;;;;;;;29.65;7.22;;;6.80;99.90;;;;;;7224360;32;20193;-76
2022/01/18 09:18:14;;;;;;;20.67;6.80;;;6.90;99.90;;;;;;7239251;32;20502;-77
2022/01/18 09:22:16;;;;;;;28.52;8.43;;;6.90;99.90;;;;;;7234776;32;20104;-77
2022/01/18 09:26:18;;;;;;;25.02;8.13;;;6.90;99.90;;;;;;7214914;32;20201;-77
2022/01/18 09:30:21;;;;;;;23.55;7.93;;;7.00;99.90;;;;;;7217765;32;20116;-77
2022/01/18 09:34:23;;;;;;;23.65;8.70;;;7.00;99.90;;;;;;7230846;32;20135;-77
2022/01/18 09:38:25;;;;;;;26.92;8.68;;;7.10;99.90;;;;;;7219337;32;20212;-77
2022/01/18 09:42:33;;;;;;;25.37;9.65;;;7.20;99.90;;;;;;7215876;32;20117;-77
2022/01/18 09:46:35;;;;;;;35.58;10.38;;;7.30;99.90;;;;;;7224858;32;20804;-77
2022/01/18 09:50:38;;;;;;;25.90;9.48;;;7.40;99.90;;;;;;7232294;32;20166;-77
2022/01/18 09:54:42;;;;;;;20.75;8.38;;;7.60;99.90;;;;;;7226226;32;20613;-77
2022/01/18 09:58:45;;;;;;;30.55;9.13;;;7.50;99.90;;;;;;7216441;32;20261;-77
2022/01/18 10:02:47;;;;;;;27.40;10.48;;;7.70;99.90;;;;;;7228618;32;20266;-76
2022/01/18 10:06:52;;;;;;;23.05;8.48;;;7.80;99.90;;;;;;7229661;32;20192;-77
2022/01/18 10:11:16;;;;;;;23.45;10.00;;;7.90;99.90;;;;;;7224656;32;20123;-76
2022/01/18 10:15:18;;;;;;;28.33;8.90;;;7.80;99.90;;;;;;7213826;32;20270;-77
2022/01/18 10:19:48;;;;;;;24.98;9.02;;;7.80;99.90;;;;;;7228689;32;20112;-76
2022/01/18 10:23:50;;;;;;;27.75;9.07;;;7.90;99.90;;;;;;7222507;32;20112;-76
2022/01/18 10:27:54;;;;;;;26.40;8.38;;;8.00;99.90;;;;;;7234509;32;20142;-76
2022/01/18 10:32:00;;;;;;;26.02;9.40;;;8.00;99.90;;;;;;7209790;32;20549;-77
2022/01/18 10:36:11;;;;;;;24.33;9.40;;;8.00;99.90;;;;;;7230748;32;20678;-76
2022/01/18 10:40:16;;;;;;;27.33;10.93;;;8.00;99.90;;;;;;7235302;32;20175;-76
2022/01/18 10:44:19;;;;;;;24.65;10.10;;;8.10;99.90;;;;;;7223078;32;20264;-76
2022/01/18 10:48:21;;;;;;;26.27;11.75;;;8.10;99.90;;;;;;7240118;32;20108;-76
2022/01/18 10:52:28;;;;;;;33.67;11.65;;;8.10;99.90;;;;;;7233048;32;20148;-76
2022/01/18 10:56:39;;;;;;;28.33;11.57;;;8.10;99.90;;;;;;7232283;32;20109;-76
2022/01/18 11:00:42;;;;;;;29.42;12.20;;;8.10;99.90;;;;;;7211107;32;20187;-76
2022/01/18 11:04:45;;;;;;;32.83;11.85;;;8.30;99.90;;;;;;7232223;32;20110;-76
2022/01/18 11:09:15;;;;;;;29.98;12.10;;;8.50;99.90;;;;;;7235781;32;20108;-76
2022/01/18 11:13:22;;;;;;;27.37;11.38;;;8.40;99.90;;;;;;7242895;32;20151;-76
2022/01/18 11:17:26;;;;;;;33.13;12.88;;;8.70;99.90;;;;;;7228428;32;20196;-76
2022/01/18 11:21:29;;;;;;;24.63;11.82;;;8.90;99.90;;;;;;7234831;32;20618;-76
2022/01/18 11:30:59;;;;;;;27.42;12.43;;;8.90;99.90;;;;;;7221486;32;20121;-77
2022/01/18 11:40:09;;;;;;;29.35;11.18;;;8.90;99.90;;;;;;7227043;32;20115;-77
2022/01/18 11:44:27;;;;;;;26.25;11.27;;;9.00;99.90;;;;;;7234829;32;20175;-78
2022/01/18 11:48:28;;;;;;;31.85;10.95;;;8.90;99.90;;;;;;7238830;32;20281;-77
2022/01/18 11:52:36;;;;;;;29.35;12.43;;;8.80;99.90;;;;;;7218603;32;20131;-77
2022/01/18 12:01:57;;;;;;;29.98;12.25;;;8.50;99.90;;;;;;7228834;32;20131;-77
2022/01/18 12:06:01;;;;;;;24.42;10.68;;;8.50;99.90;;;;;;7229541;32;20187;-78
2022/01/18 12:10:09;;;;;;;24.63;11.50;;;8.30;99.90;;;;;;7231651;32;20218;-77
2022/01/18 12:14:11;;;;;;;27.52;10.73;;;8.30;99.90;;;;;;7224274;32;20128;-77
2022/01/18 12:18:21;;;;;;;23.12;11.73;;;8.30;99.90;;;;;;7236209;32;20126;-78
2022/01/18 12:22:59;;;;;;;26.10;9.95;;;8.20;99.90;;;;;;7225014;32;20097;-77
2022/01/18 12:27:29;;;;;;;30.50;11.27;;;8.20;99.90;;;;;;7216372;32;20109;-77
2022/01/18 12:35:45;;;;;;;28.02;12.52;;;8.10;99.90;;;;;;7237269;32;20502;-77
2022/01/18 12:39:50;;;;;;;33.25;16.20;;;8.10;99.90;;;;;;7220327;32;20113;-78
2022/01/18 12:48:23;;;;;;;31.92;17.37;;;8.20;99.90;;;;;;7223105;32;20593;-77
2022/01/18 12:52:24;;;;;;;34.38;17.62;;;8.20;99.90;;;;;;7218008;32;20144;-78
2022/01/18 12:56:26;;;;;;;40.97;19.73;;;8.10;99.90;;;;;;7222746;32;20239;-77
2022/01/18 13:00:29;;;;;;;32.95;18.65;;;8.20;99.90;;;;;;7220116;32;20506;-79
2022/01/18 13:04:31;;;;;;;35.05;18.73;;;8.50;99.90;;;;;;7215636;32;20790;-77
2022/01/18 13:13:32;;;;;;;40.75;22.23;;;8.40;99.90;;;;;;7231235;32;20600;-77
2022/01/18 13:26:41;;;;;;;41.83;24.37;;;8.70;99.90;;;;;;7231837;32;20116;-76
2022/01/18 13:30:43;;;;;;;49.80;25.25;;;8.80;99.90;;;;;;7235498;32;20184;-77
2022/01/18 13:34:48;;;;;;;42.83;22.45;;;8.90;99.90;;;;;;7221003;32;20132;-77
2022/01/18 13:38:51;;;;;;;44.03;20.27;;;8.70;99.90;;;;;;7226911;32;20148;-77
2022/01/18 13:43:02;;;;;;;39.33;19.52;;;8.80;99.90;;;;;;7224081;32;20266;-77
2022/01/18 13:47:13;;;;;;;44.53;21.00;;;8.80;99.90;;;;;;7223381;32;20570;-77
2022/01/18 13:51:19;;;;;;;44.70;20.55;;;8.80;99.90;;;;;;7228286;32;20573;-77
2022/01/18 13:55:25;;;;;;;42.35;22.20;;;8.80;99.90;;;;;;7212313;32;20120;-77
2022/01/18 13:59:27;;;;;;;45.17;20.83;;;8.80;99.90;;;;;;7232508;32;20108;-78
2022/01/18 14:03:41;;;;;;;40.95;19.40;;;8.80;99.90;;;;;;7233210;32;20287;-78
2022/01/18 14:07:43;;;;;;;43.22;19.95;;;8.70;99.90;;;;;;7224932;32;20105;-78
2022/01/18 14:11:51;;;;;;;37.42;18.65;;;8.60;99.90;;;;;;7231050;32;20093;-78
2022/01/18 14:15:55;;;;;;;35.15;16.90;;;8.60;99.90;;;;;;7224981;32;20581;-77
2022/01/18 14:20:04;;;;;;;38.90;15.75;;;8.50;99.90;;;;;;7219573;32;20273;-77
2022/01/18 14:24:15;;;;;;;35.55;15.43;;;8.50;99.90;;;;;;7218488;32;20383;-78
2022/01/18 14:28:17;;;;;;;29.58;16.00;;;8.40;99.90;;;;;;7232544;32;20640;-77
2022/01/18 14:37:47;;;;;;;27.52;15.25;;;8.10;99.90;;;;;;7217886;32;20541;-77
2022/01/18 14:41:59;;;;;;;31.33;14.63;;;8.00;99.90;;;;;;7221945;32;20294;-77
2022/01/18 14:50:12;;;;;;;32.22;15.07;;;8.00;99.90;;;;;;7216946;32;20121;-78
2022/01/18 14:54:14;;;;;;;32.65;15.55;;;7.90;99.90;;;;;;7218040;32;20120;-78
2022/01/18 14:58:26;;;;;;;33.22;13.90;;;8.00;99.90;;;;;;7217061;32;20113;-79
2022/01/18 15:02:30;;;;;;;33.35;16.30;;;7.90;99.90;;;;;;7239143;32;20202;-78
2022/01/18 15:06:32;;;;;;;39.25;19.02;;;7.80;99.90;;;;;;7248055;32;20121;-78
2022/01/18 15:10:35;;;;;;;34.30;15.85;;;7.80;99.90;;;;;;7233643;32;20112;-77
2022/01/18 15:14:37;;;;;;;27.15;13.40;;;7.90;99.90;;;;;;7233611;32;20176;-77
2022/01/18 15:18:40;;;;;;;28.10;14.20;;;7.80;99.90;;;;;;7218738;32;20188;-76
2022/01/18 15:22:43;;;;;;;24.77;8.98;;;7.80;99.90;;;;;;7219417;32;20183;-77
2022/01/18 15:26:45;;;;;;;15.82;7.65;;;7.80;99.90;;;;;;7215500;32;20795;-76
2022/01/18 15:30:46;;;;;;;22.10;9.70;;;7.70;99.90;;;;;;7216994;32;20120;-77
2022/01/18 15:34:49;;;;;;;30.60;14.95;;;7.60;99.90;;;;;;7214627;32;20151;-77
2022/01/18 15:38:52;;;;;;;32.63;15.70;;;7.60;99.90;;;;;;7230134;32;20354;-77
2022/01/18 15:42:53;;;;;;;31.80;14.70;;;7.50;99.90;;;;;;7230306;32;20106;-77
2022/01/18 15:46:57;;;;;;;28.12;14.23;;;7.50;99.90;;;;;;7229740;32;20113;-78
2022/01/18 15:50:58;;;;;;;35.80;17.02;;;7.40;99.90;;;;;;7241875;32;20124;-78
2022/01/18 15:55:01;;;;;;;35.75;18.15;;;7.40;99.90;;;;;;7223927;32;20550;-78
2022/01/18 15:59:03;;;;;;;40.05;19.25;;;7.20;99.90;;;;;;7234531;32;20109;-78
2022/01/18 16:03:05;;;;;;;38.85;17.90;;;7.10;99.90;;;;;;7216752;32;20191;-78
2022/01/18 16:07:08;;;;;;;38.35;18.98;;;7.00;99.90;;;;;;7229840;32;20152;-78
2022/01/18 16:11:12;;;;;;;37.47;18.48;;;6.90;99.90;;;;;;7227879;32;20175;-78
2022/01/18 16:15:14;;;;;;;33.90;17.80;;;6.80;99.90;;;;;;7229294;32;20499;-78
2022/01/18 16:19:16;;;;;;;37.72;18.58;;;6.60;99.90;;;;;;7233459;32;20166;-78
2022/01/18 16:23:18;;;;;;;34.47;17.40;;;6.60;99.90;;;;;;7221146;32;20131;-78
2022/01/18 16:27:20;;;;;;;38.63;17.02;;;6.40;99.90;;;;;;7223115;32;20152;-78
2022/01/18 16:31:22;;;;;;;34.80;16.37;;;6.30;99.90;;;;;;7234090;32;20887;-78
2022/01/18 16:35:24;;;;;;;33.25;15.82;;;6.20;99.90;;;;;;7231788;32;20794;-78
2022/01/18 16:39:26;;;;;;;33.50;16.27;;;6.10;99.90;;;;;;7235391;32;20195;-78
2022/01/18 16:43:29;;;;;;;39.20;17.45;;;6.00;99.90;;;;;;7237997;32;20155;-78
2022/01/18 16:47:31;;;;;;;33.35;16.27;;;6.00;99.90;;;;;;7237304;32;20105;-78
2022/01/18 16:51:34;;;;;;;37.90;16.60;;;6.10;99.90;;;;;;7232343;32;21379;-78
2022/01/18 16:55:38;;;;;;;32.60;15.45;;;6.10;99.90;;;;;;7229265;32;20470;-78
2022/01/18 16:59:40;;;;;;;35.78;15.85;;;6.10;99.90;;;;;;7230435;32;20109;-78
2022/01/18 17:03:42;;;;;;;32.42;15.18;;;6.00;99.90;;;;;;7224716;32;20108;-78
2022/01/18 17:07:44;;;;;;;33.60;15.15;;;6.00;99.90;;;;;;7233500;32;20130;-78
2022/01/18 17:11:46;;;;;;;34.40;16.00;;;6.00;99.90;;;;;;7229126;32;20561;-78
2022/01/18 17:15:48;;;;;;;33.83;14.38;;;6.00;99.90;;;;;;7219555;32;20126;-78
2022/01/18 17:19:50;;;;;;;31.75;15.35;;;6.00;99.90;;;;;;7222353;32;20298;-78
2022/01/18 17:23:52;;;;;;;31.75;15.90;;;6.00;99.90;;;;;;7224648;32;20191;-78
2022/01/18 17:27:54;;;;;;;35.13;15.90;;;5.90;99.90;;;;;;7225354;32;20225;-78
2022/01/18 17:31:56;;;;;;;39.03;16.27;;;5.90;99.90;;;;;;7235232;32;20233;-76
2022/01/18 17:35:58;;;;;;;37.67;16.30;;;5.90;99.90;;;;;;7221245;32;20132;-78
2022/01/18 17:40:00;;;;;;;31.87;14.27;;;6.00;99.90;;;;;;7210086;32;20191;-78
2022/01/18 17:44:04;;;;;;;30.98;14.30;;;6.00;99.90;;;;;;7223862;32;20531;-78
2022/01/18 17:48:06;;;;;;;32.05;13.20;;;5.90;99.90;;;;;;7215621;32;20176;-79
2022/01/18 17:52:08;;;;;;;32.40;13.18;;;5.90;99.90;;;;;;7222077;32;20236;-78
2022/01/18 17:56:10;;;;;;;24.92;13.32;;;5.90;99.90;;;;;;7217985;32;20183;-78
2022/01/18 18:00:12;;;;;;;30.20;13.77;;;5.90;99.90;;;;;;7211066;32;20637;-78
2022/01/18 18:04:14;;;;;;;30.23;13.20;;;5.90;99.90;;;;;;7230367;32;20701;-79
2022/01/18 18:08:36;;;;;;;33.00;13.45;;;5.90;99.90;;;;;;7223198;32;20529;-78
2022/01/18 18:12:39;;;;;;;24.85;12.13;;;5.90;99.90;;;;;;7226664;32;20830;-78
2022/01/18 18:16:41;;;;;;;22.02;12.07;;;5.90;99.90;;;;;;7230280;32;20112;-79
2022/01/18 18:20:43;;;;;;;25.40;12.27;;;6.00;99.90;;;;;;7220315;32;20140;-79
2022/01/18 18:24:45;;;;;;;25.85;13.30;;;5.90;99.90;;;;;;7216114;32;20113;-77
2022/01/18 18:28:47;;;;;;;32.20;16.98;;;5.90;99.90;;;;;;7229435;32;20573;-77
2022/01/18 18:32:49;;;;;;;37.30;17.95;;;5.80;99.90;;;;;;7239098;32;20506;-77
2022/01/18 18:36:55;;;;;;;31.07;15.63;;;5.80;99.90;;;;;;7228239;32;20117;-77
2022/01/18 18:41:03;;;;;;;25.42;12.15;;;5.80;99.90;;;;;;7231058;32;20124;-77
2022/01/18 18:45:05;;;;;;;20.48;12.57;;;5.80;99.90;;;;;;7217831;32;20113;-77
2022/01/18 18:49:09;;;;;;;28.42;13.32;;;5.80;99.90;;;;;;7224567;32;20188;-76
2022/01/18 18:53:10;;;;;;;27.52;11.85;;;5.80;99.90;;;;;;7265064;32;20214;-79
2022/01/18 18:57:18;;;;;;;25.27;11.93;;;5.80;99.90;;;;;;7221122;32;20109;-77
2022/01/18 19:01:28;;;;;;;22.98;12.43;;;5.80;99.90;;;;;;7212511;32;20319;-76
2022/01/18 19:05:35;;;;;;;23.42;11.48;;;5.80;99.90;;;;;;7217400;32;20215;-76
2022/01/18 19:09:36;;;;;;;21.85;10.93;;;5.80;99.90;;;;;;7224356;32;20210;-76
2022/01/18 19:13:38;;;;;;;24.75;10.68;;;5.80;99.90;;;;;;7231991;32;20195;-76
2022/01/18 19:17:41;;;;;;;22.85;11.48;;;5.90;99.90;;;;;;7219585;32;20233;-77
2022/01/18 19:21:45;;;;;;;20.23;10.52;;;5.80;99.90;;;;;;7241689;32;20125;-78
2022/01/18 19:25:48;;;;;;;19.48;10.65;;;5.80;99.90;;;;;;7238449;32;20632;-77
2022/01/18 19:29:50;;;;;;;25.95;11.88;;;5.80;99.90;;;;;;7232074;32;20113;-77
2022/01/18 19:33:52;;;;;;;30.55;14.25;;;5.80;99.90;;;;;;7219745;32;20499;-77
2022/01/18 19:37:54;;;;;;;21.17;11.20;;;5.80;99.90;;;;;;7215177;32;20106;-77
2022/01/18 19:41:59;;;;;;;25.40;11.12;;;5.80;99.90;;;;;;7216657;32;20615;-77
2022/01/18 19:46:03;;;;;;;25.02;11.63;;;5.70;99.90;;;;;;7239433;32;20207;-78
2022/01/18 19:50:06;;;;;;;20.15;10.25;;;5.80;99.90;;;;;;7230510;32;20235;-78
2022/01/18 19:54:09;;;;;;;21.87;9.27;;;5.80;99.90;;;;;;7217814;32;20114;-78
2022/01/18 19:58:12;;;;;;;19.58;10.02;;;5.80;99.90;;;;;;7230762;32;20950;-78
2022/01/18 20:02:14;;;;;;;17.77;9.52;;;5.90;99.90;;;;;;7234080;32;20112;-78
2022/01/18 20:06:16;;;;;;;22.10;8.60;;;5.90;99.90;;;;;;7242354;32;20140;-78
2022/01/18 20:10:19;;;;;;;19.87;8.95;;;5.90;99.90;;;;;;7231196;32;20109;-77
2022/01/18 20:14:21;;;;;;;19.05;7.90;;;5.90;99.90;;;;;;7228468;32;20207;-77
2022/01/18 20:18:24;;;;;;;17.30;8.40;;;5.90;99.90;;;;;;7240209;32;20180;-77
2022/01/18 20:22:29;;;;;;;17.65;8.07;;;5.80;99.90;;;;;;7228168;32;20109;-76
2022/01/18 20:26:31;;;;;;;18.62;7.50;;;5.90;99.90;;;;;;7224203;32;20309;-78
2022/01/18 20:30:33;;;;;;;19.25;8.40;;;5.90;99.90;;;;;;7209334;32;20172;-78
2022/01/18 20:34:35;;;;;;;17.45;8.27;;;6.00;99.90;;;;;;7233985;32;20497;-78
2022/01/18 20:38:40;;;;;;;19.77;9.00;;;6.00;99.90;;;;;;7221870;32;20535;-79
2022/01/18 20:47:06;;;;;;;18.50;8.20;;;6.20;99.90;;;;;;7238153;32;21793;-79
2022/01/18 20:51:08;;;;;;;15.57;7.32;;;6.20;99.90;;;;;;7231765;32;20171;-79
2022/01/18 20:55:10;;;;;;;13.93;7.15;;;6.20;99.90;;;;;;7223712;32;20622;-78
2022/01/18 20:59:12;;;;;;;19.98;8.23;;;6.20;99.90;;;;;;7231494;32;20157;-78
2022/01/18 21:03:14;;;;;;;18.55;7.15;;;6.00;99.90;;;;;;7228808;32;20124;-79
2022/01/18 21:07:16;;;;;;;16.27;6.70;;;6.00;99.90;;;;;;7218484;32;20162;-79
2022/01/18 21:11:18;;;;;;;15.52;7.20;;;6.00;99.90;;;;;;7225938;32;20263;-77
2022/01/18 21:15:21;;;;;;;13.52;5.87;;;5.90;99.90;;;;;;7229068;32;20169;-78
2022/01/18 21:19:23;;;;;;;11.55;5.95;;;5.70;99.90;;;;;;7249514;32;20096;-77
2022/01/18 21:23:25;;;;;;;13.13;5.62;;;5.70;99.90;;;;;;7240203;32;20108;-78
2022/01/18 21:27:27;;;;;;;13.95;5.65;;;5.50;99.90;;;;;;7240667;32;20128;-78
2022/01/18 21:31:28;;;;;;;11.93;5.72;;;5.40;99.90;;;;;;7237073;32;20607;-78
2022/01/18 21:35:31;;;;;;;10.70;5.12;;;5.30;99.90;;;;;;7229986;32;20187;-78
2022/01/18 21:39:33;;;;;;;13.00;5.78;;;5.20;99.90;;;;;;7218850;32;20146;-77
2022/01/18 21:43:38;;;;;;;11.98;5.87;;;5.20;99.90;;;;;;7221545;32;20378;-78
2022/01/18 21:47:40;;;;;;;15.43;6.80;;;4.90;99.90;;;;;;7227214;32;20146;-78
2022/01/18 21:51:42;;;;;;;9.93;6.43;;;4.70;99.90;;;;;;7232350;32;20139;-78
2022/01/18 21:55:44;;;;;;;11.93;6.40;;;4.50;99.90;;;;;;7237223;32;20121;-78
2022/01/18 21:59:48;;;;;;;13.77;7.10;;;4.40;99.90;;;;;;7216129;32;20729;-79
2022/01/18 22:03:50;;;;;;;10.98;5.93;;;4.20;99.90;;;;;;7218506;32;20188;-78
2022/01/18 22:07:52;;;;;;;17.65;6.37;;;4.00;99.90;;;;;;7234143;32;20186;-79
2022/01/18 22:11:54;;;;;;;12.43;6.03;;;3.90;99.90;;;;;;7231473;32;20570;-77
2022/01/18 22:15:56;;;;;;;11.85;6.75;;;3.70;99.90;;;;;;7226593;32;20192;-78
2022/01/18 22:19:59;;;;;;;14.77;6.03;;;3.50;99.90;;;;;;7225053;32;20121;-78
2022/01/18 22:24:01;;;;;;;16.37;5.85;;;3.40;99.90;;;;;;7220225;32;20241;-78
2022/01/18 22:28:14;;;;;;;12.93;5.53;;;3.20;99.90;;;;;;7233903;32;20172;-78
2022/01/18 22:32:15;;;;;;;13.48;5.45;;;3.10;99.90;;;;;;7228372;32;20192;-80
2022/01/18 22:36:20;;;;;;;10.95;5.55;;;3.10;99.90;;;;;;7240728;32;20117;-77
2022/01/18 22:40:21;;;;;;;10.45;5.47;;;2.90;99.90;;;;;;7214346;32;20196;-79
2022/01/18 22:44:25;;;;;;;11.23;4.68;;;2.90;99.90;;;;;;7218601;32;20120;-77
2022/01/18 22:48:27;;;;;;;10.65;5.25;;;2.70;99.90;;;;;;7223463;32;20188;-78
2022/01/18 22:52:30;;;;;;;13.80;5.22;;;2.60;99.90;;;;;;7237232;32;20124;-77